QTR34ME KJFK-EGLL
Flight info
| Callsign | QTR34ME |
|---|---|
| Flight time | N/A |
| Altitude | 35000 |
| Route | BETTE DCT ACK DCT BRADD N427A ELSIR/M086F350 DCT 50N050W 53N040W 54N030W 54N020W DCT MALOT DCT GISTI/N0500F370 DCT EVRIN DCT JETZI DCT AMFUL DCT ORZEB/N0464F230 P2 SIRIC |
| Aircraft | B77W/H-SDE1E2E3FGHIJ2J3J4J5M1RWXY/LB1D1 |
Departure
| Time | 2026-05-09 18:12 |
|---|---|
| Airport | John F. Kennedy International Airport (KJFK) |
Arrival
| Time | N/A |
|---|---|
| Airport | London Heathrow Airport (EGLL) |
| Time | Latitude | Longitude | Altitude | Speed | Heading |
|---|---|---|---|---|---|
| 2026-05-09 17:39 | 40.64860 | -73.79533 | 22 ft | 0 kts | 311° |
| 2026-05-09 17:52 | 40.64852 | -73.79522 | 22 ft | 2 kts | 311° |
| 2026-05-09 17:53 | 40.64843 | -73.79507 | 22 ft | 2 kts | 311° |
| 2026-05-09 17:53 | 40.64833 | -73.79492 | 22 ft | 2 kts | 311° |
| 2026-05-09 17:53 | 40.64824 | -73.79476 | 22 ft | 2 kts | 290° |
| 2026-05-09 17:53 | 40.64821 | -73.79458 | 22 ft | 2 kts | 271° |
| 2026-05-09 17:54 | 40.64822 | -73.79439 | 22 ft | 2 kts | 253° |
| 2026-05-09 17:54 | 40.64828 | -73.79421 | 22 ft | 2 kts | 239° |
| 2026-05-09 17:54 | 40.64836 | -73.79404 | 22 ft | 2 kts | 239° |
| 2026-05-09 17:54 | 40.64843 | -73.79390 | 22 ft | 0 kts | 241° |
| 2026-05-09 17:55 | 40.64843 | -73.79388 | 22 ft | 0 kts | 241° |
| 2026-05-09 18:00 | 40.64842 | -73.79391 | 22 ft | 1 kts | 241° |
| 2026-05-09 18:00 | 40.64829 | -73.79424 | 22 ft | 7 kts | 242° |
| 2026-05-09 18:00 | 40.64792 | -73.79510 | 22 ft | 14 kts | 240° |
| 2026-05-09 18:01 | 40.64758 | -73.79591 | 22 ft | 0 kts | 242° |
| 2026-05-09 18:01 | 40.64753 | -73.79602 | 22 ft | 4 kts | 242° |
| 2026-05-09 18:01 | 40.64753 | -73.79658 | 22 ft | 9 kts | 295° |
| 2026-05-09 18:02 | 40.64820 | -73.79703 | 22 ft | 14 kts | 357° |
| 2026-05-09 18:02 | 40.64932 | -73.79701 | 22 ft | 18 kts | 2° |
| 2026-05-09 18:02 | 40.65059 | -73.79642 | 22 ft | 21 kts | 47° |
| 2026-05-09 18:02 | 40.65136 | -73.79475 | 22 ft | 20 kts | 62° |
| 2026-05-09 18:03 | 40.65197 | -73.79321 | 22 ft | 18 kts | 71° |
| 2026-05-09 18:03 | 40.65195 | -73.79165 | 22 ft | 16 kts | 107° |
| 2026-05-09 18:03 | 40.65162 | -73.79030 | 22 ft | 14 kts | 108° |
| 2026-05-09 18:03 | 40.65142 | -73.78908 | 22 ft | 13 kts | 96° |
| 2026-05-09 18:04 | 40.65142 | -73.78795 | 22 ft | 11 kts | 80° |
| 2026-05-09 18:04 | 40.65168 | -73.78702 | 22 ft | 10 kts | 62° |
| 2026-05-09 18:04 | 40.65203 | -73.78613 | 22 ft | 11 kts | 61° |
| 2026-05-09 18:04 | 40.65247 | -73.78519 | 22 ft | 13 kts | 60° |
| 2026-05-09 18:05 | 40.65262 | -73.78395 | 22 ft | 16 kts | 100° |
| 2026-05-09 18:05 | 40.65194 | -73.78222 | 22 ft | 23 kts | 121° |
| 2026-05-09 18:05 | 40.65113 | -73.78046 | 22 ft | 21 kts | 119° |
| 2026-05-09 18:05 | 40.65042 | -73.77887 | 22 ft | 19 kts | 120° |
| 2026-05-09 18:06 | 40.64977 | -73.77745 | 22 ft | 17 kts | 121° |
| 2026-05-09 18:06 | 40.64920 | -73.77620 | 22 ft | 15 kts | 120° |
| 2026-05-09 18:06 | 40.64869 | -73.77506 | 22 ft | 13 kts | 120° |
| 2026-05-09 18:06 | 40.64823 | -73.77405 | 22 ft | 12 kts | 120° |
| 2026-05-09 18:07 | 40.64780 | -73.77307 | 22 ft | 12 kts | 121° |
| 2026-05-09 18:07 | 40.64731 | -73.77206 | 22 ft | 13 kts | 123° |
| 2026-05-09 18:07 | 40.64673 | -73.77117 | 22 ft | 12 kts | 144° |
| 2026-05-09 18:07 | 40.64600 | -73.77088 | 22 ft | 8 kts | 162° |
| 2026-05-09 18:08 | 40.64575 | -73.77029 | 22 ft | 7 kts | 89° |
| 2026-05-09 18:08 | 40.64578 | -73.76954 | 22 ft | 8 kts | 69° |
| 2026-05-09 18:08 | 40.64617 | -73.76904 | 22 ft | 8 kts | 33° |
| 2026-05-09 18:08 | 40.64680 | -73.76854 | 22 ft | 12 kts | 30° |
| 2026-05-09 18:09 | 40.64769 | -73.76784 | 22 ft | 17 kts | 30° |
| 2026-05-09 18:09 | 40.64867 | -73.76707 | 22 ft | 15 kts | 32° |
| 2026-05-09 18:09 | 40.64955 | -73.76637 | 22 ft | 14 kts | 31° |
| 2026-05-09 18:09 | 40.65036 | -73.76575 | 22 ft | 12 kts | 30° |
| 2026-05-09 18:10 | 40.65085 | -73.76534 | 22 ft | 6 kts | 43° |
| 2026-05-09 18:10 | 40.65098 | -73.76504 | 22 ft | 5 kts | 77° |
| 2026-05-09 18:10 | 40.65080 | -73.76427 | 22 ft | 8 kts | 120° |
| 2026-05-09 18:10 | 40.65045 | -73.76373 | 22 ft | 8 kts | 149° |
| 2026-05-09 18:11 | 40.64985 | -73.76382 | 22 ft | 10 kts | 211° |
| 2026-05-09 18:11 | 40.64853 | -73.76485 | 22 ft | 48 kts | 211° |
| 2026-05-09 18:11 | 40.64341 | -73.76887 | 22 ft | 120 kts | 211° |
| 2026-05-09 18:11 | 40.63470 | -73.77569 | 248 ft | 160 kts | 210° |
| 2026-05-09 18:12 | 40.62537 | -73.78286 | 1060 ft | 159 kts | 213° |
| 2026-05-09 18:12 | 40.61615 | -73.79082 | 1683 ft | 163 kts | 216° |
| 2026-05-09 18:12 | 40.60630 | -73.79909 | 2086 ft | 179 kts | 211° |
| 2026-05-09 18:12 | 40.59361 | -73.80293 | 2455 ft | 203 kts | 181° |
| 2026-05-09 18:13 | 40.57972 | -73.79610 | 2785 ft | 237 kts | 146° |
| 2026-05-09 18:13 | 40.57038 | -73.77698 | 3288 ft | 269 kts | 109° |
| 2026-05-09 18:13 | 40.56856 | -73.75196 | 4125 ft | 279 kts | 97° |
| 2026-05-09 18:13 | 40.56817 | -73.72617 | 4953 ft | 285 kts | 96° |
| 2026-05-09 18:14 | 40.56784 | -73.70009 | 5795 ft | 289 kts | 96° |
| 2026-05-09 18:14 | 40.56751 | -73.67392 | 6610 ft | 293 kts | 96° |
| 2026-05-09 18:14 | 40.56718 | -73.64696 | 7424 ft | 296 kts | 96° |
| 2026-05-09 18:14 | 40.56684 | -73.61986 | 8220 ft | 300 kts | 96° |
| 2026-05-09 18:15 | 40.56649 | -73.59222 | 8959 ft | 305 kts | 96° |
| 2026-05-09 18:15 | 40.56613 | -73.56426 | 9708 ft | 309 kts | 96° |
| 2026-05-09 18:15 | 40.56576 | -73.53596 | 10409 ft | 315 kts | 96° |
| 2026-05-09 18:15 | 40.56536 | -73.50692 | 10859 ft | 330 kts | 95° |
| 2026-05-09 18:16 | 40.56494 | -73.47592 | 11297 ft | 346 kts | 95° |
| 2026-05-09 18:16 | 40.56449 | -73.44330 | 11701 ft | 363 kts | 95° |
| 2026-05-09 18:16 | 40.56403 | -73.40956 | 12035 ft | 381 kts | 94° |
| 2026-05-09 18:16 | 40.56358 | -73.37404 | 12512 ft | 394 kts | 94° |
| 2026-05-09 18:17 | 40.56311 | -73.33721 | 13089 ft | 414 kts | 94° |
| 2026-05-09 18:17 | 40.56261 | -73.29909 | 13880 ft | 427 kts | 94° |
| 2026-05-09 18:17 | 40.56210 | -73.25970 | 14815 ft | 436 kts | 94° |
| 2026-05-09 18:17 | 40.56160 | -73.22012 | 15822 ft | 441 kts | 94° |
| 2026-05-09 18:18 | 40.56108 | -73.17953 | 16687 ft | 450 kts | 94° |
| 2026-05-09 18:18 | 40.56058 | -73.13843 | 17621 ft | 455 kts | 93° |
| 2026-05-09 18:18 | 40.56009 | -73.09675 | 18598 ft | 458 kts | 93° |
| 2026-05-09 18:18 | 40.55963 | -73.05514 | 19381 ft | 463 kts | 92° |
| 2026-05-09 18:19 | 40.56184 | -73.01257 | 20057 ft | 472 kts | 83° |
| 2026-05-09 18:19 | 40.57968 | -72.92792 | 21068 ft | 490 kts | 72° |
| 2026-05-09 18:19 | 40.59074 | -72.88560 | 21604 ft | 495 kts | 72° |
| 2026-05-09 18:20 | 40.60186 | -72.84283 | 22164 ft | 499 kts | 72° |
| 2026-05-09 18:20 | 40.61306 | -72.79953 | 22721 ft | 503 kts | 72° |
| 2026-05-09 18:20 | 40.62434 | -72.75568 | 23220 ft | 508 kts | 72° |
| 2026-05-09 18:20 | 40.63562 | -72.71167 | 23710 ft | 513 kts | 72° |
| 2026-05-09 18:21 | 40.64693 | -72.66740 | 24256 ft | 517 kts | 72° |
| 2026-05-09 18:21 | 40.65844 | -72.62216 | 24789 ft | 520 kts | 72° |
| 2026-05-09 18:21 | 40.66984 | -72.57727 | 25270 ft | 524 kts | 72° |
| 2026-05-09 18:21 | 40.68145 | -72.53141 | 25741 ft | 529 kts | 72° |
| 2026-05-09 18:22 | 40.69310 | -72.48531 | 26244 ft | 533 kts | 72° |
| 2026-05-09 18:22 | 40.70467 | -72.43940 | 26757 ft | 536 kts | 72° |
| 2026-05-09 18:22 | 40.71646 | -72.39253 | 27277 ft | 539 kts | 72° |
| 2026-05-09 18:22 | 40.72821 | -72.34573 | 27783 ft | 542 kts | 72° |
| 2026-05-09 18:23 | 40.73998 | -72.29874 | 28208 ft | 547 kts | 72° |
| 2026-05-09 18:23 | 40.75194 | -72.25086 | 28610 ft | 552 kts | 72° |
| 2026-05-09 18:23 | 40.76400 | -72.20255 | 29079 ft | 555 kts | 72° |
| 2026-05-09 18:23 | 40.77596 | -72.15450 | 29646 ft | 556 kts | 72° |
| 2026-05-09 18:24 | 40.78811 | -72.10559 | 30391 ft | 553 kts | 72° |
| 2026-05-09 18:24 | 40.80009 | -72.05730 | 31130 ft | 550 kts | 72° |
| 2026-05-09 18:24 | 40.81192 | -72.00948 | 31731 ft | 549 kts | 72° |
| 2026-05-09 18:25 | 40.83602 | -71.91180 | 32844 ft | 547 kts | 72° |
| 2026-05-09 18:25 | 40.84794 | -71.86339 | 33315 ft | 547 kts | 72° |
| 2026-05-09 18:25 | 40.85970 | -71.81550 | 33739 ft | 548 kts | 73° |
| 2026-05-09 18:25 | 40.87150 | -71.76730 | 34171 ft | 548 kts | 72° |
| 2026-05-09 18:26 | 40.88322 | -71.71938 | 34627 ft | 548 kts | 73° |
| 2026-05-09 18:26 | 40.89481 | -71.67187 | 34927 ft | 549 kts | 73° |
| 2026-05-09 18:26 | 40.90660 | -71.62341 | 34957 ft | 555 kts | 72° |
| 2026-05-09 18:27 | 40.93025 | -71.52596 | 34965 ft | 566 kts | 73° |
| 2026-05-09 18:27 | 40.95419 | -71.42689 | 34975 ft | 568 kts | 72° |
| 2026-05-09 18:28 | 40.97815 | -71.32731 | 34969 ft | 568 kts | 73° |
| 2026-05-09 18:28 | 41.00178 | -71.22863 | 34967 ft | 568 kts | 73° |
| 2026-05-09 18:29 | 41.02562 | -71.12869 | 34967 ft | 568 kts | 73° |
| 2026-05-09 18:29 | 41.04919 | -71.02944 | 34970 ft | 569 kts | 73° |
| 2026-05-09 18:30 | 41.07281 | -70.92953 | 34962 ft | 569 kts | 73° |
| 2026-05-09 18:30 | 41.09638 | -70.82945 | 34967 ft | 569 kts | 73° |
| 2026-05-09 18:31 | 41.11977 | -70.72964 | 34979 ft | 568 kts | 73° |
| 2026-05-09 18:31 | 41.14315 | -70.62944 | 34976 ft | 568 kts | 73° |
| 2026-05-09 18:32 | 41.16621 | -70.53017 | 34993 ft | 568 kts | 73° |
| 2026-05-09 18:32 | 41.18951 | -70.42941 | 34998 ft | 567 kts | 73° |
| 2026-05-09 18:33 | 41.21259 | -70.32917 | 34994 ft | 568 kts | 74° |
| 2026-05-09 18:33 | 41.23554 | -70.22906 | 34998 ft | 567 kts | 74° |
| 2026-05-09 18:34 | 41.25829 | -70.12940 | 35010 ft | 565 kts | 74° |
| 2026-05-09 18:34 | 41.28600 | -70.03216 | 34991 ft | 565 kts | 61° |
| 2026-05-09 18:35 | 41.32994 | -69.94620 | 34998 ft | 561 kts | 47° |
| 2026-05-09 18:35 | 41.38108 | -69.86909 | 35014 ft | 560 kts | 46° |
| 2026-05-09 18:36 | 41.43291 | -69.79038 | 35017 ft | 562 kts | 46° |
| 2026-05-09 18:36 | 41.48415 | -69.71166 | 35015 ft | 562 kts | 46° |
| 2026-05-09 18:37 | 41.63351 | -69.47940 | 35048 ft | 561 kts | 47° |
| 2026-05-09 18:37 | 41.68403 | -69.40009 | 35034 ft | 560 kts | 46° |
| 2026-05-09 18:38 | 41.73444 | -69.32067 | 35031 ft | 560 kts | 47° |
| 2026-05-09 18:38 | 41.78457 | -69.24149 | 35029 ft | 560 kts | 47° |
| 2026-05-09 18:40 | 41.98491 | -68.92294 | 35031 ft | 558 kts | 47° |
| 2026-05-09 18:41 | 42.03479 | -68.84311 | 35029 ft | 560 kts | 47° |
| 2026-05-09 18:41 | 42.08473 | -68.76296 | 35039 ft | 559 kts | 47° |
| 2026-05-09 18:42 | 42.13443 | -68.68296 | 35036 ft | 560 kts | 47° |
| 2026-05-09 18:42 | 42.18409 | -68.60282 | 35038 ft | 557 kts | 47° |
| 2026-05-09 18:43 | 42.23383 | -68.52235 | 35046 ft | 562 kts | 46° |
| 2026-05-09 18:43 | 42.28372 | -68.44140 | 35049 ft | 558 kts | 46° |
| 2026-05-09 18:44 | 42.33311 | -68.36105 | 35052 ft | 559 kts | 47° |
| 2026-05-09 18:44 | 42.38280 | -68.28000 | 35049 ft | 560 kts | 47° |
| 2026-05-09 18:45 | 42.43247 | -68.19875 | 35062 ft | 560 kts | 47° |
| 2026-05-09 18:45 | 42.48212 | -68.11730 | 35061 ft | 559 kts | 47° |
| 2026-05-09 18:46 | 42.53149 | -68.03612 | 35058 ft | 559 kts | 47° |
| 2026-05-09 18:46 | 42.58096 | -67.95452 | 35072 ft | 559 kts | 47° |
| 2026-05-09 18:47 | 42.62989 | -67.87360 | 35078 ft | 558 kts | 47° |
| 2026-05-09 18:47 | 42.67912 | -67.79195 | 35080 ft | 558 kts | 46° |
| 2026-05-09 18:48 | 42.72812 | -67.71047 | 35082 ft | 558 kts | 47° |
| 2026-05-09 18:48 | 42.77706 | -67.62879 | 35088 ft | 556 kts | 46° |
| 2026-05-09 18:49 | 42.82545 | -67.54785 | 35090 ft | 556 kts | 46° |
| 2026-05-09 18:49 | 42.87421 | -67.46608 | 35094 ft | 555 kts | 47° |
| 2026-05-09 18:50 | 42.92257 | -67.38475 | 35097 ft | 553 kts | 46° |
| 2026-05-09 18:50 | 42.97105 | -67.30302 | 35090 ft | 555 kts | 47° |
| 2026-05-09 18:51 | 43.01932 | -67.22140 | 35090 ft | 554 kts | 47° |
| 2026-05-09 18:51 | 43.06749 | -67.13973 | 35097 ft | 555 kts | 47° |
| 2026-05-09 18:52 | 43.11602 | -67.05722 | 35099 ft | 556 kts | 47° |
| 2026-05-09 18:52 | 43.16378 | -66.97527 | 35110 ft | 553 kts | 49° |
| 2026-05-09 18:53 | 43.20997 | -66.89023 | 35106 ft | 555 kts | 49° |
| 2026-05-09 18:53 | 43.25568 | -66.80559 | 35108 ft | 557 kts | 49° |
| 2026-05-09 18:54 | 43.30169 | -66.72035 | 35114 ft | 556 kts | 49° |
| 2026-05-09 18:54 | 43.34753 | -66.63528 | 35111 ft | 556 kts | 49° |
| 2026-05-09 18:55 | 43.39331 | -66.55015 | 35119 ft | 555 kts | 49° |
| 2026-05-09 18:55 | 43.43902 | -66.46491 | 35117 ft | 554 kts | 49° |
| 2026-05-09 18:56 | 43.48490 | -66.37918 | 35115 ft | 558 kts | 49° |
| 2026-05-09 18:56 | 43.53027 | -66.29411 | 35105 ft | 553 kts | 49° |
| 2026-05-09 18:57 | 43.57574 | -66.20865 | 35097 ft | 555 kts | 50° |
| 2026-05-09 18:57 | 43.62156 | -66.12228 | 35109 ft | 554 kts | 50° |
| 2026-05-09 18:58 | 43.66708 | -66.03622 | 35112 ft | 554 kts | 49° |
| 2026-05-09 18:58 | 43.71244 | -65.95023 | 35112 ft | 554 kts | 50° |
| 2026-05-09 18:59 | 43.75758 | -65.86440 | 35102 ft | 556 kts | 49° |
| 2026-05-09 18:59 | 43.80298 | -65.77782 | 35129 ft | 553 kts | 49° |
| 2026-05-09 19:00 | 43.84778 | -65.69210 | 35117 ft | 551 kts | 49° |
| 2026-05-09 19:00 | 43.91519 | -65.56269 | 35117 ft | 553 kts | 49° |
| 2026-05-09 19:01 | 43.95982 | -65.47671 | 35116 ft | 550 kts | 49° |
| 2026-05-09 19:01 | 44.00477 | -65.38985 | 35115 ft | 550 kts | 49° |
| 2026-05-09 19:02 | 44.04918 | -65.30376 | 35103 ft | 549 kts | 50° |
| 2026-05-09 19:02 | 44.09344 | -65.21770 | 35101 ft | 549 kts | 49° |
| 2026-05-09 19:03 | 44.13785 | -65.13112 | 35103 ft | 549 kts | 50° |
| 2026-05-09 19:03 | 44.18191 | -65.04492 | 35105 ft | 547 kts | 49° |
| 2026-05-09 19:04 | 44.22595 | -64.95855 | 35105 ft | 548 kts | 50° |
| 2026-05-09 19:04 | 44.26997 | -64.87194 | 35106 ft | 548 kts | 49° |
| 2026-05-09 19:05 | 44.31414 | -64.78478 | 35103 ft | 549 kts | 50° |
| 2026-05-09 19:05 | 44.35799 | -64.69799 | 35103 ft | 547 kts | 50° |
| 2026-05-09 19:06 | 44.40179 | -64.61104 | 35107 ft | 547 kts | 49° |
| 2026-05-09 19:06 | 44.44548 | -64.52402 | 35105 ft | 547 kts | 50° |
| 2026-05-09 19:07 | 44.48918 | -64.43677 | 35108 ft | 549 kts | 50° |
| 2026-05-09 19:07 | 44.53350 | -64.34797 | 35109 ft | 549 kts | 51° |
| 2026-05-09 19:08 | 44.57777 | -64.25899 | 35095 ft | 547 kts | 50° |
| 2026-05-09 19:08 | 44.62128 | -64.17133 | 35092 ft | 550 kts | 51° |
| 2026-05-09 19:09 | 44.66468 | -64.08353 | 35091 ft | 547 kts | 50° |
| 2026-05-09 19:09 | 44.70812 | -63.99546 | 35097 ft | 548 kts | 51° |
| 2026-05-09 19:10 | 44.75140 | -63.90743 | 35083 ft | 548 kts | 51° |
| 2026-05-09 19:10 | 44.79472 | -63.81904 | 35094 ft | 549 kts | 51° |
| 2026-05-09 19:11 | 44.83791 | -63.73062 | 35086 ft | 548 kts | 51° |
| 2026-05-09 19:11 | 44.88146 | -63.64123 | 35093 ft | 551 kts | 51° |
| 2026-05-09 19:12 | 44.92481 | -63.55195 | 35087 ft | 549 kts | 51° |
| 2026-05-09 19:12 | 44.96791 | -63.46291 | 35087 ft | 550 kts | 51° |
| 2026-05-09 19:13 | 45.01097 | -63.37367 | 35102 ft | 550 kts | 51° |
| 2026-05-09 19:13 | 45.05368 | -63.28489 | 35093 ft | 550 kts | 52° |
| 2026-05-09 19:14 | 45.09658 | -63.19543 | 35083 ft | 550 kts | 52° |
| 2026-05-09 19:14 | 45.13942 | -63.10582 | 35075 ft | 552 kts | 52° |
| 2026-05-09 19:15 | 45.18203 | -63.01638 | 35088 ft | 548 kts | 53° |
| 2026-05-09 19:15 | 45.22479 | -62.92638 | 35107 ft | 550 kts | 53° |
| 2026-05-09 19:16 | 45.26719 | -62.83683 | 35102 ft | 548 kts | 53° |
| 2026-05-09 19:16 | 45.30969 | -62.74681 | 35090 ft | 549 kts | 53° |
| 2026-05-09 19:17 | 45.35199 | -62.65693 | 35085 ft | 549 kts | 53° |
| 2026-05-09 19:17 | 45.39420 | -62.56695 | 35226 ft | 547 kts | 53° |
| 2026-05-09 19:18 | 45.43642 | -62.47667 | 35415 ft | 548 kts | 53° |
| 2026-05-09 19:18 | 45.47849 | -62.38642 | 35615 ft | 547 kts | 53° |
| 2026-05-09 19:19 | 45.49972 | -62.34076 | 35721 ft | 547 kts | 54° |
| 2026-05-09 19:19 | 45.52047 | -62.29607 | 35805 ft | 547 kts | 54° |
| 2026-05-09 19:19 | 45.56273 | -62.20483 | 35994 ft | 546 kts | 54° |
| 2026-05-09 19:20 | 45.60445 | -62.11447 | 36087 ft | 547 kts | 54° |
| 2026-05-09 19:20 | 45.64674 | -62.02257 | 36091 ft | 547 kts | 54° |
| 2026-05-09 19:21 | 45.68837 | -61.93182 | 36094 ft | 546 kts | 54° |
| 2026-05-09 19:21 | 45.72985 | -61.84112 | 36089 ft | 546 kts | 55° |
| 2026-05-09 19:22 | 45.77134 | -61.75008 | 36097 ft | 546 kts | 54° |
| 2026-05-09 19:22 | 45.81281 | -61.65879 | 36107 ft | 545 kts | 55° |
| 2026-05-09 19:23 | 45.85373 | -61.56843 | 36102 ft | 546 kts | 55° |
| 2026-05-09 19:23 | 45.89504 | -61.47691 | 36101 ft | 546 kts | 55° |
| 2026-05-09 19:24 | 45.93613 | -61.38556 | 36099 ft | 545 kts | 55° |
| 2026-05-09 19:24 | 45.97742 | -61.29350 | 36094 ft | 546 kts | 56° |
| 2026-05-09 19:25 | 46.01871 | -61.20112 | 36096 ft | 546 kts | 56° |
| 2026-05-09 19:25 | 46.05969 | -61.10914 | 36094 ft | 546 kts | 56° |
| 2026-05-09 19:26 | 46.10048 | -61.01727 | 36101 ft | 546 kts | 56° |
| 2026-05-09 19:26 | 46.14111 | -60.92546 | 36100 ft | 545 kts | 56° |
| 2026-05-09 19:27 | 46.18154 | -60.83380 | 36096 ft | 546 kts | 56° |
| 2026-05-09 19:27 | 46.22210 | -60.74156 | 36097 ft | 545 kts | 56° |
| 2026-05-09 19:28 | 46.26280 | -60.64869 | 36097 ft | 544 kts | 56° |
| 2026-05-09 19:28 | 46.30309 | -60.55644 | 36101 ft | 545 kts | 56° |
| 2026-05-09 19:29 | 46.34353 | -60.46355 | 36098 ft | 544 kts | 56° |
| 2026-05-09 19:29 | 46.38393 | -60.37043 | 36102 ft | 545 kts | 57° |
| 2026-05-09 19:30 | 46.42438 | -60.27688 | 36097 ft | 545 kts | 57° |
| 2026-05-09 19:30 | 46.46440 | -60.18402 | 36100 ft | 545 kts | 57° |
| 2026-05-09 19:31 | 46.50476 | -60.09006 | 36105 ft | 545 kts | 57° |
| 2026-05-09 19:31 | 46.54473 | -59.99668 | 36108 ft | 545 kts | 57° |
| 2026-05-09 19:32 | 46.58460 | -59.90323 | 36103 ft | 545 kts | 57° |
| 2026-05-09 19:32 | 46.62443 | -59.80953 | 36125 ft | 545 kts | 57° |
| 2026-05-09 19:33 | 46.66397 | -59.71622 | 36114 ft | 545 kts | 58° |
| 2026-05-09 19:33 | 46.70381 | -59.62190 | 36114 ft | 545 kts | 58° |
| 2026-05-09 19:34 | 46.74336 | -59.52797 | 36116 ft | 546 kts | 58° |
| 2026-05-09 19:34 | 46.78296 | -59.43358 | 36139 ft | 545 kts | 58° |
| 2026-05-09 19:35 | 46.82233 | -59.33939 | 36133 ft | 548 kts | 58° |
| 2026-05-09 19:35 | 46.86198 | -59.24420 | 36138 ft | 548 kts | 58° |
| 2026-05-09 19:36 | 46.90178 | -59.14831 | 36143 ft | 548 kts | 59° |
| 2026-05-09 19:36 | 46.94098 | -59.05356 | 36135 ft | 548 kts | 59° |
| 2026-05-09 19:37 | 46.98032 | -58.95811 | 36153 ft | 547 kts | 59° |
| 2026-05-09 19:37 | 47.01931 | -58.86320 | 36152 ft | 548 kts | 59° |
| 2026-05-09 19:38 | 47.05828 | -58.76801 | 36147 ft | 546 kts | 59° |
| 2026-05-09 19:38 | 47.09726 | -58.67247 | 36140 ft | 546 kts | 59° |
| 2026-05-09 19:39 | 47.13614 | -58.57682 | 36139 ft | 546 kts | 59° |
| 2026-05-09 19:39 | 47.17478 | -58.48143 | 36134 ft | 546 kts | 59° |
| 2026-05-09 19:40 | 47.21338 | -58.38582 | 36133 ft | 547 kts | 59° |
| 2026-05-09 19:40 | 47.25183 | -58.29023 | 36120 ft | 546 kts | 60° |
| 2026-05-09 19:41 | 47.29032 | -58.19420 | 36112 ft | 547 kts | 60° |
| 2026-05-09 19:41 | 47.32896 | -58.09747 | 36111 ft | 547 kts | 60° |
| 2026-05-09 19:42 | 47.36739 | -58.00089 | 36113 ft | 546 kts | 60° |
| 2026-05-09 19:42 | 47.40557 | -57.90464 | 36096 ft | 545 kts | 60° |
| 2026-05-09 19:43 | 47.44397 | -57.80744 | 36104 ft | 546 kts | 60° |
| 2026-05-09 19:43 | 47.48214 | -57.71051 | 36090 ft | 544 kts | 60° |
| 2026-05-09 19:44 | 47.52034 | -57.61315 | 36095 ft | 545 kts | 60° |
| 2026-05-09 19:44 | 47.55815 | -57.51642 | 36083 ft | 546 kts | 60° |
| 2026-05-09 19:45 | 47.59600 | -57.41925 | 36078 ft | 545 kts | 60° |
| 2026-05-09 19:45 | 47.63387 | -57.32168 | 36071 ft | 545 kts | 61° |
| 2026-05-09 19:46 | 47.67139 | -57.22466 | 36064 ft | 545 kts | 61° |
| 2026-05-09 19:46 | 47.70914 | -57.12667 | 36051 ft | 545 kts | 62° |
| 2026-05-09 19:47 | 47.74651 | -57.02933 | 36047 ft | 545 kts | 62° |
| 2026-05-09 19:47 | 47.78400 | -56.93129 | 36048 ft | 545 kts | 62° |
| 2026-05-09 19:48 | 47.82130 | -56.83344 | 36055 ft | 545 kts | 62° |
| 2026-05-09 19:48 | 47.85859 | -56.73522 | 36053 ft | 545 kts | 62° |
| 2026-05-09 19:49 | 47.89555 | -56.63753 | 36068 ft | 545 kts | 62° |
| 2026-05-09 19:49 | 47.93254 | -56.53939 | 36068 ft | 546 kts | 62° |
| 2026-05-09 19:50 | 47.96980 | -56.44014 | 36076 ft | 545 kts | 62° |
| 2026-05-09 19:50 | 48.00660 | -56.34179 | 36070 ft | 546 kts | 63° |
| 2026-05-09 19:51 | 48.04355 | -56.24266 | 36065 ft | 545 kts | 63° |
| 2026-05-09 19:51 | 48.08006 | -56.14433 | 36064 ft | 547 kts | 63° |
| 2026-05-09 19:52 | 48.11700 | -56.04448 | 36057 ft | 546 kts | 63° |
| 2026-05-09 19:52 | 48.15353 | -55.94536 | 36054 ft | 545 kts | 63° |
| 2026-05-09 19:53 | 48.18998 | -55.84609 | 36050 ft | 546 kts | 64° |
| 2026-05-09 19:53 | 48.22660 | -55.74600 | 36052 ft | 545 kts | 64° |
| 2026-05-09 19:54 | 48.26299 | -55.64611 | 36051 ft | 546 kts | 64° |
| 2026-05-09 19:54 | 48.29916 | -55.54649 | 36053 ft | 545 kts | 64° |
| 2026-05-09 19:55 | 48.33527 | -55.44661 | 36054 ft | 547 kts | 64° |
| 2026-05-09 19:56 | 48.38927 | -55.29659 | 36048 ft | 546 kts | 65° |
| 2026-05-09 19:56 | 48.42530 | -55.19602 | 36044 ft | 547 kts | 65° |
| 2026-05-09 19:57 | 48.46119 | -55.09542 | 36050 ft | 547 kts | 65° |
| 2026-05-09 19:57 | 48.49686 | -54.99506 | 36048 ft | 546 kts | 65° |
| 2026-05-09 19:58 | 48.53263 | -54.89404 | 36048 ft | 547 kts | 65° |
| 2026-05-09 19:58 | 48.56819 | -54.79321 | 36056 ft | 546 kts | 65° |
| 2026-05-09 19:59 | 48.60366 | -54.69226 | 36064 ft | 549 kts | 65° |
| 2026-05-09 19:59 | 48.63924 | -54.59060 | 36067 ft | 547 kts | 65° |
| 2026-05-09 20:00 | 48.67456 | -54.48928 | 36073 ft | 547 kts | 66° |
| 2026-05-09 20:00 | 48.70982 | -54.38773 | 36078 ft | 548 kts | 65° |
| 2026-05-09 20:01 | 48.74514 | -54.28561 | 36082 ft | 546 kts | 66° |
| 2026-05-09 20:01 | 48.78006 | -54.18426 | 36099 ft | 548 kts | 67° |
| 2026-05-09 20:02 | 48.81520 | -54.08183 | 36094 ft | 547 kts | 66° |
| 2026-05-09 20:02 | 48.84998 | -53.98006 | 36102 ft | 548 kts | 67° |
| 2026-05-09 20:03 | 48.90243 | -53.82585 | 36114 ft | 548 kts | 67° |
| 2026-05-09 20:03 | 48.93710 | -53.72339 | 36118 ft | 548 kts | 67° |
| 2026-05-09 20:04 | 48.97173 | -53.62065 | 36122 ft | 546 kts | 67° |
| 2026-05-09 20:04 | 49.00633 | -53.51755 | 36130 ft | 548 kts | 68° |
| 2026-05-09 20:05 | 49.04086 | -53.41425 | 36133 ft | 549 kts | 68° |